Flight Track Log - Related Links

Times and Time Zones

All times are in EDT time to prevent confusion due to time zone crossing. See the JBU1329 flight status page for this flight to view local times or setup timezone preferences in your user account.

Time Position Orientation Groundspeed Altitude Reporting Facility
EDT Latitude Longitude Course Direction KTS MPH feet Rate Location/Type
Wed 09:23:40 AM 42.3667 -70.9667 240° Southwest 163 188 800  Level KA90
Wed 09:24:22 AM 42.3667 -70.9333 90° East 171 197 1,900 2,165 Climbing KA90
Wed 09:25:17 AM 42.3833 -70.8500 75° East 231 266 4,300 2,673 Climbing KA90
Wed 09:26:00 AM 42.3924 -70.7424 144° Southeast  Level FlightAware Approximate
Wed 09:26:03 AM 42.3883 -70.7928 83° East 261 300 6,400  Level Boston Center
Wed 09:27:00 AM 42.3020 -70.7171 172° South  Level FlightAware Approximate
Wed 09:27:03 AM 42.3458 -70.7267 131° Southeast 268 308 9,800  Level Boston Center
Wed 09:28:00 AM 42.2388 -70.8084 228° Southwest  Level FlightAware Approximate
Wed 09:28:03 AM 42.2647 -70.7400 187° South 238 274 11,600  Level Boston Center
Wed 09:29:00 AM 42.1907 -70.9162 240° Southwest  Level FlightAware Approximate
Wed 09:29:03 AM 42.2267 -70.8558 246° West 229 264 14,400  Level Boston Center
Wed 09:30:03 AM 42.2036 -71.0022 258° West 297 342 17,200 2,200 Climbing Boston Center
Wed 09:31:03 AM 42.1883 -71.1119 259° West 353 406 18,800 1,950 Climbing Boston Center
Wed 09:32:03 AM 42.1672 -71.2806 260° West 392 451 21,100 2,250 Climbing Boston Center
Wed 09:33:03 AM 42.1436 -71.4292 258° West 402 463 23,300 2,000 Climbing Boston Center
Wed 09:34:03 AM 42.1158 -71.5919 257° West 408 470 25,100 1,750 Climbing Boston Center
Wed 09:35:03 AM 42.0897 -71.7492 257° West 420 483 26,800 1,650 Climbing Boston Center
Wed 09:36:03 AM 42.0656 -71.9058 258° West 430 495 28,400 1,650 Climbing Boston Center
Wed 09:37:03 AM 42.0414 -72.0656 259° West 430 495 30,100 1,750 Climbing Boston Center
Wed 09:38:03 AM 42.0167 -72.2222 258° West 430 495 31,900 950 Climbing Boston Center
Wed 09:39:03 AM 41.9961 -72.3450 257° West 430 495 32,000 50 Climbing Boston Center
Wed 09:40:03 AM 41.9647 -72.5350 258° West 430 495 32,000  Level Boston Center
Wed 09:41:03 AM 41.9333 -72.6883 255° West 430 495 32,000  Level Boston Center
Wed 09:42:03 AM 41.8581 -72.8053 229° Southwest 419 482 32,000  Level Boston Center
Wed 09:43:03 AM 41.7761 -72.9161 225° Southwest 419 482 32,000  Level Boston Center
Wed 09:44:03 AM 41.6922 -73.0294 225° Southwest 419 482 32,000  Level Boston Center
Wed 09:45:03 AM 41.6083 -73.1453 226° Southwest 430 495 32,000  Level Boston Center
Wed 09:46:03 AM 41.5306 -73.2497 225° Southwest 435 501 32,000  Level Boston Center
Wed 09:47:03 AM 41.4358 -73.3706 224° Southwest 435 501 32,000  Level Boston Center
Wed 09:48:54 AM 41.2800 -73.5872 226° Southwest 445 512 32,000  Level New York Center
Wed 09:49:55 AM 41.2019 -73.7136 231° Southwest 452 520 32,000  Level New York Center
Wed 09:50:55 AM 41.1258 -73.8425 232° Southwest 452 520 32,000  Level New York Center
Wed 09:51:53 AM 41.0494 -73.9736 232° Southwest 452 520 32,000  Level New York Center
Wed 09:52:53 AM 40.9775 -74.0911 231° Southwest 458 527 32,000 -645 Level New York Center
Wed 09:53:54 AM 40.8922 -74.2297 231° Southwest 458 527 30,700 -1,785 Descending New York Center
Wed 09:54:54 AM 40.8133 -74.3575 231° Southwest 458 527 28,400 -1,350 Descending New York Center
Wed 09:55:54 AM 40.7475 -74.4717 233° Southwest 436 502 28,000 -202 Descending New York Center
Wed 09:56:53 AM 40.6836 -74.5750 231° Southwest 398 458 28,000  Level New York Center
Wed 09:57:53 AM 40.6197 -74.6808 232° Southwest 381 438 28,000 -50 Level New York Center
Wed 09:58:54 AM 40.5536 -74.7861 230° Southwest 381 438 27,900 -545 Descending New York Center
Wed 09:59:54 AM 40.4881 -74.8806 228° Southwest 369 425 26,900 -992 Descending New York Center
Wed 10:00:55 AM 40.4178 -74.9772 226° Southwest 369 425 25,900 -1,100 Descending New York Center
Wed 10:01:54 AM 40.3475 -75.0764 227° Southwest 374 430 24,700 -1,333 Descending New York Center
Wed 10:02:52 AM 40.2794 -75.1731 227° Southwest 374 430 23,300 -1,361 Descending New York Center
Wed 10:03:53 AM 40.2114 -75.2664 226° Southwest 374 430 22,000 -1,300 Descending New York Center
Wed 10:04:52 AM 40.1453 -75.3600 227° Southwest 367 422 20,700 -984 Descending New York Center
Wed 10:05:55 AM 40.0811 -75.4481 226° Southwest 356 410 20,000 -350 Descending New York Center
Wed 10:06:52 AM 40.0258 -75.5311 229° Southwest 351 404 20,000  Level New York Center
Wed 10:07:53 AM 39.9619 -75.6161 226° Southwest 345 397 20,000 -439 Level New York Center
Wed 10:08:55 AM 39.9039 -75.7094 231° Southwest 339 390 19,100 -1,388 Descending New York Center
Wed 10:09:54 AM 39.8408 -75.8158 232° Southwest 339 390 17,200 -1,738 Descending New York Center
Wed 10:12:29 AM 39.7167 -76.0500 235° Southwest 310 357 12,900 -1,647 Descending Potomac TRACON
Wed 10:13:29 AM 39.6833 -76.1500 247° West 303 349 11,300 -1,526 Descending Potomac TRACON
Wed 10:14:23 AM 39.6500 -76.2500 247° West 294 338 10,000 -950 Descending Potomac TRACON
Wed 10:15:29 AM 39.6333 -76.3500 258° West 294 338 9,400 -850 Descending Potomac TRACON
Wed 10:16:23 AM 39.6000 -76.4333 243° Southwest 283 326 8,300 -1,100 Descending Potomac TRACON
Wed 10:17:29 AM 39.5167 -76.4500 189° South 271 312 7,200 -1,000 Descending Potomac TRACON
Wed 10:18:23 AM 39.4500 -76.4667 191° South 268 308 6,300 -1,000 Descending Potomac TRACON
Wed 10:19:23 AM 39.4000 -76.5333 226° Southwest 275 316 5,300 -684 Descending Potomac TRACON
Wed 10:20:17 AM 39.4000 -76.6167 270° West 272 313 5,000 -158 Descending Potomac TRACON
Wed 10:21:17 AM 39.3833 -76.7167 258° West 270 311 5,000 -417 Level Potomac TRACON
Wed 10:22:12 AM 39.3667 -76.8000 256° West 270 311 4,200 -496 Descending Potomac TRACON
Wed 10:23:18 AM 39.3333 -76.8833 243° Southwest 235 270 4,000 -100 Descending Potomac TRACON
Wed 10:24:12 AM 39.2833 -76.8833 180° South 204 235 4,000  Level Potomac TRACON
Wed 10:25:12 AM 39.2333 -76.8833 180° South 167 192 4,000 -368 Level Potomac TRACON
Wed 10:26:06 AM 39.1833 -76.8833 180° South 164 189 3,300 -1,053 Descending Potomac TRACON
Wed 10:27:06 AM 39.1833 -76.8333 90° East 178 205 2,000 -900 Descending Potomac TRACON
Wed 10:28:06 AM 39.1833 -76.7833 90° East 154 177 1,500 -600 Descending Potomac TRACON
Wed 10:29:06 AM 39.1833 -76.7333 90° East 136 157 800 -700 Descending Potomac TRACON

Login

Don't have an account? Register now (free) for customized features, flight alerts, and more!